Time;durP1;ratioP1;P1;durP2;ratioP2;P2;SDS_P1;SDS_P2;PMS_P1;PMS_P2;Temp;Humidity;BMP_temperature;BMP_pressure;BME280_temperature;BME280_humidity;BME280_pressure;Samples;Min_cycle;Max_cycle;Signal;HPM_P1;HPM_P2
2024/01/23 00:01:23;;;;;;;;;;;19.20;57.10;;;;;;7316265;19;9213;-60
2024/01/23 00:03:53;;;;;;;;;;;19.20;56.30;;;;;;7316491;19;9182;-60
2024/01/23 00:06:23;;;;;;;;;;;19.20;56.20;;;;;;7316641;19;9430;-60
2024/01/23 00:08:55;;;;;;;;;;;19.30;56.10;;;;;;7317594;19;9284;-60
2024/01/23 00:11:25;;;;;;;;;;;19.30;56.00;;;;;;7318488;19;9964;-60
2024/01/23 00:13:58;;;;;;;;;;;19.40;56.00;;;;;;7316767;19;9902;-60
2024/01/23 00:16:28;;;;;;;;;;;19.50;56.00;;;;;;7306086;19;9647;-61
2024/01/23 00:18:58;;;;;;;;;;;19.50;55.90;;;;;;7318394;19;9727;-60
2024/01/23 00:21:28;;;;;;;;;;;19.60;55.90;;;;;;7322958;19;9238;-60
2024/01/23 00:23:58;;;;;;;;;;;19.60;55.90;;;;;;7324555;19;9280;-60
2024/01/23 00:26:28;;;;;;;;;;;19.60;55.70;;;;;;7324968;19;9297;-60
2024/01/23 00:29:02;;;;;;;;;;;19.70;55.70;;;;;;7325024;19;9314;-60
2024/01/23 00:31:32;;;;;;;;;;;19.70;55.60;;;;;;7316627;19;9428;-60
2024/01/23 00:34:02;;;;;;;;;;;19.70;55.70;;;;;;7321371;19;9233;-60
2024/01/23 00:36:32;;;;;;;;;;;19.70;55.50;;;;;;7324276;19;9015;-60
2024/01/23 00:39:01;;;;;;;;;;;19.70;55.40;;;;;;7325662;19;9453;-60
2024/01/23 00:41:31;;;;;;;;;;;19.70;55.30;;;;;;7322379;19;10059;-60
2024/01/23 00:44:03;;;;;;;;;;;19.70;55.30;;;;;;7313559;19;9237;-60
2024/01/23 00:46:33;;;;;;;;;;;19.70;55.30;;;;;;7324838;19;9225;-60
2024/01/23 00:49:03;;;;;;;;;;;19.70;55.20;;;;;;7323627;19;9287;-60
2024/01/23 00:51:33;;;;;;;;;;;19.70;55.10;;;;;;7324270;19;9084;-60
2024/01/23 00:54:03;;;;;;;;;;;19.60;55.10;;;;;;7323538;19;9170;-60
2024/01/23 00:56:35;;;;;;;;;;;19.60;55.00;;;;;;7321317;19;9587;-60
2024/01/23 00:59:07;;;;;;;;;;;19.60;55.00;;;;;;7314795;19;9282;-60
2024/01/23 01:01:36;;;;;;;;;;;19.50;55.00;;;;;;7322651;19;9205;-60
2024/01/23 01:04:05;;;;;;;;;;;19.50;55.00;;;;;;7322190;19;9285;-60
2024/01/23 01:06:34;;;;;;;;;;;19.50;55.20;;;;;;7321700;19;9222;-60
2024/01/23 01:09:04;;;;;;;;;;;19.40;55.10;;;;;;7322690;19;9244;-60
2024/01/23 01:11:33;;;;;;;;;;;19.40;55.10;;;;;;7322556;19;9194;-60
2024/01/23 01:14:02;;;;;;;;;;;19.30;55.20;;;;;;7322456;19;9714;-60
2024/01/23 01:16:34;;;;;;;;;;;19.30;55.20;;;;;;7322870;19;9356;-60
2024/01/23 01:19:03;;;;;;;;;;;19.20;55.30;;;;;;7322379;19;9246;-60
2024/01/23 01:21:32;;;;;;;;;;;19.20;55.30;;;;;;7323312;19;9947;-60
2024/01/23 01:24:02;;;;;;;;;;;19.10;55.30;;;;;;7323386;19;9324;-61
2024/01/23 01:26:31;;;;;;;;;;;19.10;55.30;;;;;;7323523;19;9567;-60
2024/01/23 01:29:00;;;;;;;;;;;19.10;55.40;;;;;;7322415;19;9023;-60
2024/01/23 01:31:29;;;;;;;;;;;19.00;55.40;;;;;;7320615;19;9253;-60
2024/01/23 01:34:02;;;;;;;;;;;19.00;55.40;;;;;;7322732;19;9221;-60
2024/01/23 01:36:32;;;;;;;;;;;19.00;55.40;;;;;;7322375;19;9291;-60
2024/01/23 01:39:02;;;;;;;;;;;19.00;55.40;;;;;;7323005;19;9016;-60
2024/01/23 01:41:31;;;;;;;;;;;19.00;55.40;;;;;;7322190;19;9407;-60
2024/01/23 01:44:00;;;;;;;;;;;19.10;55.40;;;;;;7322823;19;9202;-60
2024/01/23 01:46:29;;;;;;;;;;;19.10;55.30;;;;;;7317803;19;9217;-60
2024/01/23 01:49:01;;;;;;;;;;;19.10;55.30;;;;;;7322487;19;9012;-60
2024/01/23 01:51:33;;;;;;;;;;;19.20;55.30;;;;;;7321741;19;9540;-60
2024/01/23 01:54:04;;;;;;;;;;;19.20;55.40;;;;;;7321334;19;9190;-60
2024/01/23 01:56:34;;;;;;;;;;;19.30;55.20;;;;;;7321332;19;9015;-60
2024/01/23 01:59:03;;;;;;;;;;;19.30;55.10;;;;;;7319804;19;9217;-60
2024/01/23 02:01:33;;;;;;;;;;;19.40;55.10;;;;;;7320860;19;9648;-60
2024/01/23 02:04:09;;;;;;;;;;;19.40;55.10;;;;;;7320452;19;9237;-60
2024/01/23 02:06:40;;;;;;;;;;;19.50;55.00;;;;;;7321411;19;9352;-60
2024/01/23 02:09:11;;;;;;;;;;;19.50;54.90;;;;;;7321557;19;9209;-60
2024/01/23 02:11:59;;;;;;;;;;;19.50;54.90;;;;;;7321970;19;9240;-60
2024/01/23 02:14:29;;;;;;;;;;;19.60;55.00;;;;;;7322409;19;9290;-60
2024/01/23 02:16:59;;;;;;;;;;;19.60;54.90;;;;;;7320633;19;9334;-60
2024/01/23 02:19:31;;;;;;;;;;;19.70;54.90;;;;;;7318095;19;11209;-60
2024/01/23 02:22:01;;;;;;;;;;;19.70;54.80;;;;;;7320661;19;9246;-60
2024/01/23 02:24:34;;;;;;;;;;;19.70;55.40;;;;;;7320669;19;9225;-60
2024/01/23 02:27:04;;;;;;;;;;;19.70;54.60;;;;;;7320799;19;10450;-60
2024/01/23 02:29:36;;;;;;;;;;;19.70;54.70;;;;;;7320880;19;9190;-60
2024/01/23 02:32:07;;;;;;;;;;;19.70;55.20;;;;;;7319582;19;9692;-60
2024/01/23 02:34:36;;;;;;;;;;;19.70;54.50;;;;;;7310231;19;9249;-60
2024/01/23 02:37:06;;;;;;;;;;;19.70;54.60;;;;;;7319631;19;9414;-60
2024/01/23 02:39:39;;;;;;;;;;;19.70;54.30;;;;;;7320456;19;9245;-60
2024/01/23 02:42:10;;;;;;;;;;;19.60;54.30;;;;;;7317897;19;9336;-61
2024/01/23 02:44:45;;;;;;;;;;;19.60;54.20;;;;;;7321525;19;9221;-60
2024/01/23 02:47:15;;;;;;;;;;;19.50;54.10;;;;;;7320507;19;9012;-60
2024/01/23 02:49:45;;;;;;;;;;;19.60;54.20;;;;;;7318989;19;9307;-60
2024/01/23 02:52:15;;;;;;;;;;;19.50;54.20;;;;;;7312846;19;9314;-60
2024/01/23 02:54:48;;;;;;;;;;;19.40;54.20;;;;;;7316790;19;9110;-60
2024/01/23 02:57:18;;;;;;;;;;;19.40;54.20;;;;;;7318496;19;9015;-60
2024/01/23 02:59:48;;;;;;;;;;;19.30;54.20;;;;;;7319219;19;9194;-60
2024/01/23 03:02:17;;;;;;;;;;;19.30;54.30;;;;;;7320194;19;9513;-60
2024/01/23 03:04:47;;;;;;;;;;;19.30;54.40;;;;;;7319709;19;9503;-60
2024/01/23 03:07:19;;;;;;;;;;;19.20;54.40;;;;;;7319948;19;12176;-60
2024/01/23 03:09:52;;;;;;;;;;;19.10;54.50;;;;;;7320176;19;9204;-60
2024/01/23 03:12:25;;;;;;;;;;;19.10;54.50;;;;;;7311733;19;9487;-60
2024/01/23 03:14:55;;;;;;;;;;;19.10;54.50;;;;;;7317079;19;9178;-60
2024/01/23 03:17:25;;;;;;;;;;;19.10;54.50;;;;;;7318283;19;9272;-60
2024/01/23 03:19:55;;;;;;;;;;;19.00;54.50;;;;;;7320806;19;9213;-60
2024/01/23 03:22:25;;;;;;;;;;;19.10;54.60;;;;;;7318267;19;9230;-60
2024/01/23 03:24:58;;;;;;;;;;;19.00;54.50;;;;;;7319268;19;9983;-60
2024/01/23 03:27:27;;;;;;;;;;;19.10;54.50;;;;;;7319061;19;9394;-60
2024/01/23 03:29:57;;;;;;;;;;;19.10;54.50;;;;;;7318577;19;9265;-60
2024/01/23 03:32:27;;;;;;;;;;;19.10;54.50;;;;;;7318659;19;9024;-60
2024/01/23 03:34:57;;;;;;;;;;;19.20;54.50;;;;;;7319954;19;9242;-60
2024/01/23 03:37:27;;;;;;;;;;;19.20;54.60;;;;;;7316778;19;9397;-61
2024/01/23 03:39:59;;;;;;;;;;;19.20;54.50;;;;;;7317722;19;9739;-60
2024/01/23 03:42:29;;;;;;;;;;;19.30;54.50;;;;;;7318729;19;9714;-60
2024/01/23 03:44:58;;;;;;;;;;;19.30;54.40;;;;;;7317165;19;10195;-60
2024/01/23 03:47:28;;;;;;;;;;;19.40;54.40;;;;;;7319776;19;9233;-60
2024/01/23 03:49:58;;;;;;;;;;;19.40;54.30;;;;;;7310054;19;9166;-60
2024/01/23 03:52:28;;;;;;;;;;;19.50;54.30;;;;;;7318722;19;9122;-60
2024/01/23 03:55:00;;;;;;;;;;;19.50;54.30;;;;;;7308106;19;9692;-60
2024/01/23 03:57:30;;;;;;;;;;;19.50;54.20;;;;;;7315411;19;9716;-60
2024/01/23 04:00:00;;;;;;;;;;;19.60;54.30;;;;;;7314312;19;9272;-60
2024/01/23 04:02:31;;;;;;;;;;;19.60;54.10;;;;;;7316384;19;9410;-60
2024/01/23 04:05:00;;;;;;;;;;;19.60;54.10;;;;;;7319110;19;9477;-60
2024/01/23 04:07:30;;;;;;;;;;;19.70;54.10;;;;;;7318197;19;9208;-60
2024/01/23 04:10:04;;;;;;;;;;;19.70;54.00;;;;;;7317634;19;9356;-60
2024/01/23 04:12:34;;;;;;;;;;;19.70;54.00;;;;;;7307950;19;10082;-60
2024/01/23 04:15:05;;;;;;;;;;;19.70;53.90;;;;;;7316443;19;9233;-60
2024/01/23 04:17:35;;;;;;;;;;;19.70;53.80;;;;;;7317501;19;9169;-60
2024/01/23 04:20:05;;;;;;;;;;;19.70;53.80;;;;;;7315743;19;9522;-60
2024/01/23 04:22:35;;;;;;;;;;;19.60;53.70;;;;;;7314714;19;9501;-60
2024/01/23 04:25:08;;;;;;;;;;;19.70;53.60;;;;;;7314454;19;9217;-60
2024/01/23 04:27:38;;;;;;;;;;;19.70;53.60;;;;;;7316439;19;9158;-60
2024/01/23 04:30:09;;;;;;;;;;;19.60;53.40;;;;;;7317191;19;9178;-61
2024/01/23 04:32:41;;;;;;;;;;;19.60;53.50;;;;;;7317086;19;9134;-60
2024/01/23 04:35:11;;;;;;;;;;;19.50;53.40;;;;;;7314236;19;9195;-60
2024/01/23 04:37:41;;;;;;;;;;;19.50;53.50;;;;;;7307926;19;9160;-60
2024/01/23 04:40:14;;;;;;;;;;;19.50;53.50;;;;;;7312660;19;8948;-60
2024/01/23 04:42:44;;;;;;;;;;;19.40;53.60;;;;;;7316746;19;9023;-60
2024/01/23 04:45:14;;;;;;;;;;;19.40;53.60;;;;;;7314158;19;9227;-60
2024/01/23 04:47:44;;;;;;;;;;;19.30;53.60;;;;;;7315597;19;9201;-60
2024/01/23 04:50:13;;;;;;;;;;;19.30;53.70;;;;;;7316610;19;9232;-60
2024/01/23 04:52:43;;;;;;;;;;;19.20;53.80;;;;;;7316506;19;9252;-60
2024/01/23 04:55:16;;;;;;;;;;;19.20;53.80;;;;;;7316336;19;9221;-60
2024/01/23 04:57:46;;;;;;;;;;;19.10;53.80;;;;;;7303767;19;9327;-60
2024/01/23 05:00:17;;;;;;;;;;;19.10;53.90;;;;;;7315897;19;9320;-60
2024/01/23 05:02:47;;;;;;;;;;;19.00;53.90;;;;;;7304149;19;9262;-60
2024/01/23 05:05:17;;;;;;;;;;;19.00;54.00;;;;;;7316614;19;9309;-60
2024/01/23 05:07:47;;;;;;;;;;;19.00;54.00;;;;;;7321600;19;9797;-60
2024/01/23 05:10:19;;;;;;;;;;;19.00;54.00;;;;;;7323585;19;9019;-60
2024/01/23 05:12:49;;;;;;;;;;;19.00;54.00;;;;;;7320992;19;9184;-61
2024/01/23 05:15:19;;;;;;;;;;;19.00;54.00;;;;;;7322718;19;9102;-61
2024/01/23 05:17:49;;;;;;;;;;;19.00;54.00;;;;;;7320576;19;9170;-60
2024/01/23 05:20:19;;;;;;;;;;;19.10;54.40;;;;;;7315187;19;9242;-61
2024/01/23 05:22:49;;;;;;;;;;;19.10;54.20;;;;;;7322116;19;9212;-61
2024/01/23 05:25:24;;;;;;;;;;;19.10;54.20;;;;;;7322075;19;9202;-60
2024/01/23 05:27:54;;;;;;;;;;;19.20;54.00;;;;;;7322188;19;9726;-61
2024/01/23 05:30:23;;;;;;;;;;;19.20;54.10;;;;;;7320796;19;9606;-61
2024/01/23 05:32:54;;;;;;;;;;;19.30;54.00;;;;;;7320971;19;9361;-61
2024/01/23 05:35:23;;;;;;;;;;;19.30;54.00;;;;;;7321384;19;9576;-61
2024/01/23 05:37:53;;;;;;;;;;;19.40;53.90;;;;;;7320757;19;9293;-60
2024/01/23 05:40:26;;;;;;;;;;;19.40;54.00;;;;;;7321740;19;9207;-61
2024/01/23 05:42:55;;;;;;;;;;;19.50;53.90;;;;;;7320813;19;9253;-61
2024/01/23 05:45:25;;;;;;;;;;;19.50;53.80;;;;;;7319540;19;9019;-61
2024/01/23 05:47:55;;;;;;;;;;;19.50;53.80;;;;;;7318884;19;9565;-61
2024/01/23 05:50:25;;;;;;;;;;;19.60;53.90;;;;;;7321097;19;9210;-61
2024/01/23 05:52:55;;;;;;;;;;;19.60;54.40;;;;;;7320406;19;9150;-61
2024/01/23 05:55:27;;;;;;;;;;;19.70;53.70;;;;;;7322084;19;9936;-61
2024/01/23 05:57:58;;;;;;;;;;;19.70;53.70;;;;;;7319197;19;9312;-61
2024/01/23 06:00:28;;;;;;;;;;;19.70;53.70;;;;;;7310125;19;9262;-60
2024/01/23 06:02:58;;;;;;;;;;;19.70;53.60;;;;;;7319115;19;9245;-61
2024/01/23 06:05:28;;;;;;;;;;;19.70;53.60;;;;;;7320864;19;9210;-60
2024/01/23 06:07:58;;;;;;;;;;;19.70;53.50;;;;;;7319653;19;9242;-61
2024/01/23 06:10:30;;;;;;;;;;;19.70;53.40;;;;;;7321484;19;9138;-61
2024/01/23 06:13:00;;;;;;;;;;;19.70;53.50;;;;;;7319878;19;9475;-60
2024/01/23 06:15:30;;;;;;;;;;;19.60;53.30;;;;;;7321325;19;9463;-61
2024/01/23 06:17:59;;;;;;;;;;;19.70;53.40;;;;;;7305798;19;9231;-61
2024/01/23 06:20:29;;;;;;;;;;;19.60;53.30;;;;;;7321756;19;9229;-60
2024/01/23 06:22:59;;;;;;;;;;;19.60;53.30;;;;;;7319301;19;9336;-61
2024/01/23 06:25:31;;;;;;;;;;;19.50;53.30;;;;;;7319884;19;10041;-61
2024/01/23 06:28:01;;;;;;;;;;;19.50;53.30;;;;;;7322038;19;8991;-60
2024/01/23 06:30:31;;;;;;;;;;;19.40;53.40;;;;;;7319187;19;9174;-61
2024/01/23 06:33:01;;;;;;;;;;;19.40;53.40;;;;;;7321802;19;9255;-61
2024/01/23 06:35:31;;;;;;;;;;;19.30;53.50;;;;;;7313493;19;9210;-61
2024/01/23 06:38:01;;;;;;;;;;;19.30;53.50;;;;;;7319536;19;9217;-60
2024/01/23 06:40:33;;;;;;;;;;;19.30;53.60;;;;;;7317887;19;9367;-61
2024/01/23 06:43:03;;;;;;;;;;;19.20;53.60;;;;;;7320834;19;9250;-60
2024/01/23 06:45:32;;;;;;;;;;;19.20;53.70;;;;;;7319828;19;9384;-60
2024/01/23 06:48:02;;;;;;;;;;;19.10;53.80;;;;;;7317700;19;9473;-61
2024/01/23 06:50:32;;;;;;;;;;;19.10;53.90;;;;;;7319346;19;9245;-61
2024/01/23 06:53:03;;;;;;;;;;;19.10;54.00;;;;;;7320828;19;9233;-61
2024/01/23 06:55:35;;;;;;;;;;;19.00;53.90;;;;;;7319842;19;11505;-60
2024/01/23 06:58:06;;;;;;;;;;;19.00;53.90;;;;;;7319086;19;9317;-60
2024/01/23 07:00:36;;;;;;;;;;;19.00;54.00;;;;;;7319975;19;9529;-60
2024/01/23 07:03:06;;;;;;;;;;;19.00;54.00;;;;;;7300941;19;9249;-61
2024/01/23 07:05:36;;;;;;;;;;;19.00;54.00;;;;;;7316977;19;10070;-60
2024/01/23 07:08:03;;;;;;;;;;;19.00;54.00;;;;;;7314932;19;9645;-60
2024/01/23 07:10:36;;;;;;;;;;;19.10;54.00;;;;;;7304294;19;9488;-60
2024/01/23 07:13:06;;;;;;;;;;;19.00;54.00;;;;;;7308619;19;9314;-60
2024/01/23 07:15:36;;;;;;;;;;;19.10;54.10;;;;;;7317131;19;9485;-60
2024/01/23 07:18:06;;;;;;;;;;;19.10;54.00;;;;;;7318192;19;9373;-60
2024/01/23 07:20:36;;;;;;;;;;;19.20;54.10;;;;;;7306913;19;9290;-60
2024/01/23 07:23:06;;;;;;;;;;;19.20;54.00;;;;;;7313985;19;9286;-62
2024/01/23 07:25:38;;;;;;;;;;;19.30;54.00;;;;;;7315225;19;9253;-61
2024/01/23 07:28:11;;;;;;;;;;;19.40;54.10;;;;;;7316590;19;9180;-60
2024/01/23 07:30:41;;;;;;;;;;;19.40;53.90;;;;;;7314526;19;9584;-60
2024/01/23 07:33:12;;;;;;;;;;;19.40;53.80;;;;;;7317237;19;9379;-61
2024/01/23 07:35:42;;;;;;;;;;;19.50;53.80;;;;;;7316718;19;9237;-61
2024/01/23 07:38:12;;;;;;;;;;;19.50;53.70;;;;;;7304759;19;9476;-60
2024/01/23 07:40:44;;;;;;;;;;;19.60;53.70;;;;;;7311548;19;9044;-60
2024/01/23 07:43:14;;;;;;;;;;;19.60;53.70;;;;;;7312902;19;9317;-61
2024/01/23 07:45:43;;;;;;;;;;;19.60;53.70;;;;;;7314180;19;9601;-60
2024/01/23 07:48:12;;;;;;;;;;;19.60;53.70;;;;;;7311904;19;9323;-61
2024/01/23 07:50:41;;;;;;;;;;;19.60;53.60;;;;;;7317375;19;9753;-60
2024/01/23 07:53:10;;;;;;;;;;;19.60;53.60;;;;;;7314572;19;9297;-60
2024/01/23 07:55:39;;;;;;;;;;;19.60;53.50;;;;;;7315957;19;9410;-60
2024/01/23 07:58:13;;;;;;;;;;;19.60;53.40;;;;;;7307100;19;9233;-61
2024/01/23 08:00:43;;;;;;;;;;;19.60;53.30;;;;;;7317449;19;9020;-61
2024/01/23 08:03:13;;;;;;;;;;;19.60;53.40;;;;;;7302058;19;9070;-60
2024/01/23 08:05:42;;;;;;;;;;;19.60;53.40;;;;;;7313715;19;10008;-60
2024/01/23 08:08:11;;;;;;;;;;;19.60;53.40;;;;;;7310709;19;9205;-61
2024/01/23 08:10:40;;;;;;;;;;;19.50;53.30;;;;;;7311725;19;9424;-60
2024/01/23 08:13:12;;;;;;;;;;;19.60;53.40;;;;;;7316293;19;9764;-60
2024/01/23 08:15:41;;;;;;;;;;;19.50;53.30;;;;;;7317410;19;9282;-61
2024/01/23 08:18:13;;;;;;;;;;;19.40;53.40;;;;;;7317282;19;9617;-60
2024/01/23 08:20:42;;;;;;;;;;;19.40;53.50;;;;;;7307077;19;9334;-61
2024/01/23 08:23:11;;;;;;;;;;;19.30;53.70;;;;;;7315913;19;9375;-60
2024/01/23 08:25:41;;;;;;;;;;;19.30;53.90;;;;;;7308379;19;9964;-61
2024/01/23 08:28:13;;;;;;;;;;;19.30;53.90;;;;;;7315875;19;9238;-60
2024/01/23 08:30:42;;;;;;;;;;;19.20;54.00;;;;;;7316739;19;9241;-60
2024/01/23 08:33:14;;;;;;;;;;;19.20;54.30;;;;;;7317203;19;9335;-60
2024/01/23 08:35:44;;;;;;;;;;;19.10;54.50;;;;;;7316715;19;9015;-60
2024/01/23 08:38:15;;;;;;;;;;;19.10;54.60;;;;;;7314970;19;9194;-60
2024/01/23 08:40:45;;;;;;;;;;;19.10;54.60;;;;;;7318788;19;9245;-60
2024/01/23 08:43:17;;;;;;;;;;;19.10;54.70;;;;;;7317801;19;9534;-59
2024/01/23 08:45:48;;;;;;;;;;;19.10;54.80;;;;;;7314187;19;9227;-61
2024/01/23 08:48:22;;;;;;;;;;;19.10;54.80;;;;;;7322528;19;9234;-59
2024/01/23 08:50:53;;;;;;;;;;;19.10;54.90;;;;;;7322600;19;9173;-59
2024/01/23 08:53:22;;;;;;;;;;;19.10;54.90;;;;;;7321935;19;9158;-59
2024/01/23 08:55:52;;;;;;;;;;;19.10;55.00;;;;;;7320338;19;9274;-59
2024/01/23 08:58:24;;;;;;;;;;;19.10;54.90;;;;;;7322635;19;9098;-59
2024/01/23 09:00:54;;;;;;;;;;;19.20;55.00;;;;;;7321626;19;9234;-59
2024/01/23 09:03:24;;;;;;;;;;;19.20;54.90;;;;;;7320568;19;9360;-60
2024/01/23 09:05:54;;;;;;;;;;;19.30;54.90;;;;;;7320136;19;9563;-60
2024/01/23 09:08:24;;;;;;;;;;;19.30;54.80;;;;;;7321297;19;9249;-59
2024/01/23 09:10:53;;;;;;;;;;;19.40;54.80;;;;;;7320200;19;9287;-59
2024/01/23 09:13:26;;;;;;;;;;;19.40;54.80;;;;;;7320578;19;9290;-59
2024/01/23 09:15:56;;;;;;;;;;;19.50;54.70;;;;;;7319742;19;9267;-59
2024/01/23 09:18:25;;;;;;;;;;;19.50;54.60;;;;;;7316432;19;9221;-59
2024/01/23 09:20:56;;;;;;;;;;;19.50;54.50;;;;;;7320515;19;9295;-59
2024/01/23 09:23:26;;;;;;;;;;;19.60;54.50;;;;;;7318080;19;9202;-61
2024/01/23 09:25:55;;;;;;;;;;;19.70;54.50;;;;;;7314859;19;9243;-59
2024/01/23 09:28:26;;;;;;;;;;;19.70;54.40;;;;;;7317802;19;9731;-59
2024/01/23 09:30:56;;;;;;;;;;;19.70;54.40;;;;;;7320248;19;9016;-59
2024/01/23 09:33:25;;;;;;;;;;;19.80;54.50;;;;;;7319556;19;9213;-59
2024/01/23 09:35:54;;;;;;;;;;;19.80;54.50;;;;;;7314714;19;9964;-60
2024/01/23 09:38:23;;;;;;;;;;;19.80;54.50;;;;;;7317512;19;9791;-59
2024/01/23 09:40:53;;;;;;;;;;;19.80;54.50;;;;;;7319576;19;9242;-62
2024/01/23 09:43:27;;;;;;;;;;;19.80;54.50;;;;;;7316226;19;9798;-60
2024/01/23 09:45:58;;;;;;;;;;;19.80;54.50;;;;;;7320151;19;9213;-59
2024/01/23 09:48:27;;;;;;;;;;;19.80;54.50;;;;;;7314697;19;9714;-59
2024/01/23 09:50:58;;;;;;;;;;;19.80;54.50;;;;;;7313276;19;9319;-59
2024/01/23 09:53:28;;;;;;;;;;;19.80;54.50;;;;;;7314291;19;9241;-59
2024/01/23 09:55:58;;;;;;;;;;;19.80;54.50;;;;;;7319828;19;9321;-59
2024/01/23 09:58:30;;;;;;;;;;;19.80;54.70;;;;;;7319706;19;9340;-59
2024/01/23 10:00:59;;;;;;;;;;;19.80;54.70;;;;;;7320707;19;9020;-59
2024/01/23 10:03:29;;;;;;;;;;;19.80;54.70;;;;;;7310149;19;9178;-59
2024/01/23 10:05:58;;;;;;;;;;;19.80;54.80;;;;;;7308490;19;9079;-59
2024/01/23 10:08:27;;;;;;;;;;;19.80;54.80;;;;;;7316265;19;9170;-59
2024/01/23 10:11:00;;;;;;;;;;;19.70;54.90;;;;;;7316399;19;10007;-59
2024/01/23 10:13:32;;;;;;;;;;;19.70;54.90;;;;;;7317682;19;9186;-59
2024/01/23 10:16:01;;;;;;;;;;;19.70;55.00;;;;;;7318546;19;9262;-59
2024/01/23 10:18:30;;;;;;;;;;;19.70;55.00;;;;;;7315356;19;9360;-59
2024/01/23 10:21:00;;;;;;;;;;;19.70;55.80;;;;;;7317024;19;9310;-58
2024/01/23 10:23:30;;;;;;;;;;;19.70;55.10;;;;;;7318848;19;9458;-59
2024/01/23 10:26:00;;;;;;;;;;;19.60;55.20;;;;;;7320861;19;9360;-62
2024/01/23 10:28:33;;;;;;;;;;;19.60;55.30;;;;;;7317780;19;9423;-61
2024/01/23 10:31:03;;;;;;;;;;;19.60;55.30;;;;;;7310896;19;10082;-61
2024/01/23 10:33:33;;;;;;;;;;;19.60;55.30;;;;;;7317787;19;9241;-61
2024/01/23 10:36:05;;;;;;;;;;;19.50;55.30;;;;;;7319583;19;9275;-61
2024/01/23 10:38:35;;;;;;;;;;;19.60;55.40;;;;;;7315579;19;9260;-59
2024/01/23 10:41:07;;;;;;;;;;;19.50;55.50;;;;;;7320928;19;9430;-61
2024/01/23 10:43:42;;;;;;;;;;;19.50;55.50;;;;;;7317588;19;9218;-61
2024/01/23 10:46:13;;;;;;;;;;;19.50;55.60;;;;;;7320004;19;9455;-59
2024/01/23 10:48:43;;;;;;;;;;;19.50;55.70;;;;;;7318257;19;9122;-61
2024/01/23 10:51:20;;;;;;;;;;;19.50;55.70;;;;;;7319505;19;9174;-61
2024/01/23 10:54:01;;;;;;;;;;;19.50;55.70;;;;;;7318372;19;9303;-61
2024/01/23 10:56:36;;;;;;;;;;;19.50;55.70;;;;;;7319142;19;9984;-61
2024/01/23 10:59:17;;;;;;;;;;;19.50;55.80;;;;;;7317692;19;9990;-61
2024/01/23 11:01:48;;;;;;;;;;;19.50;55.80;;;;;;7317727;19;9220;-61
2024/01/23 11:04:18;;;;;;;;;;;19.50;55.90;;;;;;7316851;19;11260;-61
2024/01/23 11:06:57;;;;;;;;;;;19.50;55.90;;;;;;7316424;19;9201;-61
2024/01/23 11:09:32;;;;;;;;;;;19.50;55.80;;;;;;7310924;19;9244;-61
2024/01/23 11:12:08;;;;;;;;;;;19.50;55.80;;;;;;7299355;19;9251;-62
2024/01/23 11:14:50;;;;;;;;;;;19.50;56.00;;;;;;7308683;19;9438;-61
2024/01/23 11:17:20;;;;;;;;;;;19.50;56.30;;;;;;7311983;19;10134;-61
2024/01/23 11:19:50;;;;;;;;;;;19.50;56.10;;;;;;7313439;19;10131;-60
2024/01/23 11:22:24;;;;;;;;;;;19.50;56.00;;;;;;7312532;19;12490;-61
2024/01/23 11:24:54;;;;;;;;;;;19.50;56.00;;;;;;7306587;19;9261;-60
2024/01/23 11:27:27;;;;;;;;;;;19.50;56.10;;;;;;7310440;19;9438;-61
2024/01/23 11:30:00;;;;;;;;;;;19.50;56.10;;;;;;7312217;19;9264;-58
2024/01/23 11:32:31;;;;;;;;;;;19.50;56.80;;;;;;7310797;19;9286;-58
2024/01/23 11:35:02;;;;;;;;;;;19.50;56.10;;;;;;7307002;19;9478;-57
2024/01/23 11:37:47;;;;;;;;;;;19.50;56.20;;;;;;7307169;19;9914;-58
2024/01/23 11:40:42;;;;;;;;;;;19.60;56.30;;;;;;7314103;19;9023;-58
2024/01/23 11:43:26;;;;;;;;;;;19.50;56.30;;;;;;7314280;19;9265;-57
2024/01/23 11:45:58;;;;;;;;;;;19.50;56.30;;;;;;7314741;19;9249;-58
2024/01/23 11:48:28;;;;;;;;;;;19.50;56.30;;;;;;7312227;19;9442;-58
2024/01/23 11:51:00;;;;;;;;;;;19.50;56.40;;;;;;7312633;19;9260;-58
2024/01/23 11:53:37;;;;;;;;;;;19.50;56.40;;;;;;7311326;19;9243;-58
2024/01/23 11:56:08;;;;;;;;;;;19.50;56.60;;;;;;7312624;19;9209;-58
2024/01/23 11:58:38;;;;;;;;;;;19.50;56.50;;;;;;7312118;19;10203;-58
2024/01/23 12:01:11;;;;;;;;;;;19.50;56.50;;;;;;7312431;19;9279;-59
2024/01/23 12:03:48;;;;;;;;;;;19.50;56.50;;;;;;7313097;19;9268;-59
2024/01/23 12:06:19;;;;;;;;;;;19.50;56.50;;;;;;7300659;19;9205;-58
2024/01/23 12:08:49;;;;;;;;;;;19.50;56.60;;;;;;7311572;19;9015;-58
2024/01/23 12:11:20;;;;;;;;;;;19.50;56.50;;;;;;7316606;19;9213;-58
2024/01/23 12:13:52;;;;;;;;;;;19.50;56.60;;;;;;7315039;19;10124;-58
2024/01/23 12:16:24;;;;;;;;;;;19.50;56.60;;;;;;7313320;19;9181;-58
2024/01/23 12:18:58;;;;;;;;;;;19.50;56.60;;;;;;7312986;19;9019;-58
2024/01/23 12:21:28;;;;;;;;;;;19.50;56.60;;;;;;7316441;19;9158;-58
2024/01/23 12:23:58;;;;;;;;;;;19.50;56.60;;;;;;7304302;19;9601;-58
2024/01/23 12:26:28;;;;;;;;;;;19.50;56.60;;;;;;7316524;19;9275;-58
2024/01/23 12:28:58;;;;;;;;;;;19.50;56.60;;;;;;7314001;19;10082;-58
2024/01/23 12:31:32;;;;;;;;;;;19.50;56.60;;;;;;7316208;19;9255;-58
2024/01/23 12:34:02;;;;;;;;;;;19.50;56.60;;;;;;7312145;19;12968;-58
2024/01/23 12:36:31;;;;;;;;;;;19.50;56.60;;;;;;7315132;19;9040;-58
2024/01/23 12:39:02;;;;;;;;;;;19.50;56.60;;;;;;7312304;19;9822;-58
2024/01/23 12:41:33;;;;;;;;;;;19.50;56.60;;;;;;7306430;19;9238;-58
2024/01/23 12:44:02;;;;;;;;;;;19.50;56.60;;;;;;7310090;19;9241;-58
2024/01/23 12:46:35;;;;;;;;;;;19.50;56.60;;;;;;7314858;19;10293;-58
2024/01/23 12:49:09;;;;;;;;;;;19.50;56.60;;;;;;7313375;19;9196;-58
2024/01/23 12:51:39;;;;;;;;;;;19.50;56.50;;;;;;7315493;19;9469;-58
2024/01/23 12:54:11;;;;;;;;;;;19.50;56.50;;;;;;7313271;19;9248;-58
2024/01/23 12:56:41;;;;;;;;;;;19.60;56.50;;;;;;7314584;19;9190;-59
2024/01/23 12:59:11;;;;;;;;;;;19.60;56.60;;;;;;7308098;19;9397;-60
2024/01/23 13:01:44;;;;;;;;;;;19.60;56.50;;;;;;7314966;19;9221;-60
2024/01/23 13:04:14;;;;;;;;;;;19.60;56.50;;;;;;7309412;19;9470;-60
2024/01/23 13:06:43;;;;;;;;;;;19.70;56.50;;;;;;7308988;19;9450;-60
2024/01/23 13:09:13;;;;;;;;;;;19.70;56.50;;;;;;7312629;19;9019;-60
2024/01/23 13:11:43;;;;;;;;;;;19.70;56.50;;;;;;7315370;19;9418;-60
2024/01/23 13:14:13;;;;;;;;;;;19.70;56.40;;;;;;7309182;19;9289;-60
2024/01/23 13:16:45;;;;;;;;;;;19.60;56.50;;;;;;7312896;19;9772;-60
2024/01/23 13:19:15;;;;;;;;;;;19.60;56.50;;;;;;7313529;19;9241;-60
2024/01/23 13:21:45;;;;;;;;;;;19.60;56.50;;;;;;7305642;19;9318;-60
2024/01/23 13:24:15;;;;;;;;;;;19.60;56.50;;;;;;7309103;19;9975;-60
2024/01/23 13:26:45;;;;;;;;;;;19.50;56.50;;;;;;7317963;19;9230;-60
2024/01/23 13:29:15;;;;;;;;;;;19.50;56.60;;;;;;7319315;19;9134;-60
2024/01/23 13:31:47;;;;;;;;;;;19.50;56.70;;;;;;7322481;19;9369;-60
2024/01/23 13:34:17;;;;;;;;;;;19.50;56.70;;;;;;7318262;19;9253;-60
2024/01/23 13:36:47;;;;;;;;;;;19.40;57.40;;;;;;7321837;19;9213;-61
2024/01/23 13:39:18;;;;;;;;;;;19.40;56.80;;;;;;7312219;19;9502;-60
2024/01/23 13:41:48;;;;;;;;;;;19.40;56.80;;;;;;7316562;19;9564;-60
2024/01/23 13:44:18;;;;;;;;;;;19.30;56.80;;;;;;7315490;19;9213;-60
2024/01/23 13:46:50;;;;;;;;;;;19.30;56.80;;;;;;7320776;19;9020;-60
2024/01/23 13:49:20;;;;;;;;;;;19.30;57.00;;;;;;7318614;19;9176;-60
2024/01/23 13:51:51;;;;;;;;;;;19.20;57.00;;;;;;7317229;19;9281;-60
2024/01/23 13:54:21;;;;;;;;;;;19.20;57.10;;;;;;7320983;19;9370;-60
2024/01/23 13:56:51;;;;;;;;;;;19.20;57.10;;;;;;7318723;19;9326;-60
2024/01/23 13:59:21;;;;;;;;;;;19.20;57.20;;;;;;7318301;19;10005;-59
2024/01/23 14:01:55;;;;;;;;;;;19.10;57.20;;;;;;7320278;19;9192;-60
2024/01/23 14:04:24;;;;;;;;;;;19.10;57.30;;;;;;7318683;19;9253;-59
2024/01/23 14:06:54;;;;;;;;;;;19.10;57.40;;;;;;7310247;19;9426;-60
2024/01/23 14:09:24;;;;;;;;;;;19.10;57.40;;;;;;7316112;19;9117;-60
2024/01/23 14:11:55;;;;;;;;;;;19.00;57.40;;;;;;7320450;19;9214;-60
2024/01/23 14:14:25;;;;;;;;;;;19.00;57.40;;;;;;7320112;19;9414;-60
2024/01/23 14:16:57;;;;;;;;;;;19.00;57.50;;;;;;7319533;19;9051;-60
2024/01/23 14:19:27;;;;;;;;;;;19.00;57.50;;;;;;7320761;19;9201;-60
2024/01/23 14:21:57;;;;;;;;;;;19.00;57.50;;;;;;7319567;19;8952;-60
2024/01/23 14:24:27;;;;;;;;;;;19.10;57.50;;;;;;7311993;19;12301;-60
2024/01/23 14:26:57;;;;;;;;;;;19.10;57.50;;;;;;7315628;19;9344;-60
2024/01/23 14:29:27;;;;;;;;;;;19.10;57.40;;;;;;7317678;19;9410;-60
2024/01/23 14:31:59;;;;;;;;;;;19.20;57.30;;;;;;7319232;19;9141;-60
2024/01/23 14:34:29;;;;;;;;;;;19.30;57.10;;;;;;7320139;19;9274;-60
2024/01/23 14:36:59;;;;;;;;;;;19.30;57.10;;;;;;7316622;19;9252;-60
2024/01/23 14:39:29;;;;;;;;;;;19.30;57.00;;;;;;7313612;19;9019;-60
2024/01/23 14:42:01;;;;;;;;;;;19.40;56.80;;;;;;7315275;19;9335;-60
2024/01/23 14:44:31;;;;;;;;;;;19.50;56.90;;;;;;7318299;19;9070;-60
2024/01/23 14:47:05;;;;;;;;;;;19.50;56.60;;;;;;7318835;19;9315;-59
2024/01/23 14:49:35;;;;;;;;;;;19.60;56.60;;;;;;7320018;19;9506;-60